Time;durP1;ratioP1;P1;durP2;ratioP2;P2;SDS_P1;SDS_P2;PMS_P1;PMS_P2;Temp;Humidity;BMP_temperature;BMP_pressure;BME280_temperature;BME280_humidity;BME280_pressure;Samples;Min_cycle;Max_cycle;Signal;HPM_P1;HPM_P2
2022/02/07 00:01:05;;;;;;;16.20;2.17;;;;;;;;;;6343184;22;20168;-90
2022/02/07 00:03:41;;;;;;;11.13;1.83;;;;;;;;;;6341483;22;20175;-90
2022/02/07 00:06:08;;;;;;;12.47;1.87;;;;;;;;;;6343616;22;20174;-90
2022/02/07 00:08:36;;;;;;;9.07;1.80;;;;;;;;;;6342187;22;20170;-90
2022/02/07 00:11:04;;;;;;;8.73;1.77;;;;;;;;;;6341306;22;20195;-90
2022/02/07 00:13:32;;;;;;;10.90;1.97;;;;;;;;;;6341422;22;20193;-90
2022/02/07 00:15:59;;;;;;;10.43;1.57;;;;;;;;;;6342101;22;20172;-91
2022/02/07 00:18:27;;;;;;;9.60;1.83;;;;;;;;;;6341158;22;20173;-90
2022/02/07 00:20:54;;;;;;;16.37;2.67;;;;;;;;;;6341316;22;20512;-90
2022/02/07 00:23:22;;;;;;;14.07;1.90;;;;;;;;;;6340699;22;20208;-90
2022/02/07 00:25:49;;;;;;;18.43;2.50;;;;;;;;;;6341862;22;20165;-90
2022/02/07 00:28:18;;;;;;;16.07;2.63;;;;;;;;;;6345756;22;20191;-90
2022/02/07 00:30:45;;;;;;;16.87;2.23;;;;;;;;;;6347677;22;20220;-91
2022/02/07 00:33:13;;;;;;;14.73;2.40;;;;;;;;;;6352341;22;20190;-90
2022/02/07 00:35:40;;;;;;;16.73;2.30;;;;;;;;;;6362295;22;20167;-91
2022/02/07 00:38:11;;;;;;;15.90;2.33;;;;;;;;;;6342558;22;20684;-91
2022/02/07 00:40:58;;;;;;;20.67;2.73;;;;;;;;;;6340264;22;20176;-90
2022/02/07 00:43:33;;;;;;;15.13;2.30;;;;;;;;;;6339423;22;20185;-90
2022/02/07 00:46:07;;;;;;;14.13;2.47;;;;;;;;;;6340013;22;20613;-90
2022/02/07 00:48:34;;;;;;;15.93;2.40;;;;;;;;;;6339132;22;20167;-90
2022/02/07 00:51:01;;;;;;;16.57;2.50;;;;;;;;;;6339812;22;20184;-89
2022/02/07 00:53:31;;;;;;;15.57;2.70;;;;;;;;;;6338657;22;20198;-90
2022/02/07 00:55:58;;;;;;;17.00;2.57;;;;;;;;;;6339695;22;20171;-90
2022/02/07 00:58:27;;;;;;;19.43;2.83;;;;;;;;;;6339140;22;20270;-90
2022/02/07 01:00:54;;;;;;;15.63;2.67;;;;;;;;;;6342512;22;20630;-90
2022/02/07 01:03:22;;;;;;;19.33;2.77;;;;;;;;;;6346324;22;20222;-90
2022/02/07 01:05:50;;;;;;;19.57;2.60;;;;;;;;;;6341449;22;20236;-90
2022/02/07 01:08:21;;;;;;;20.60;3.10;;;;;;;;;;6338829;22;20168;-90
2022/02/07 01:10:56;;;;;;;19.73;2.53;;;;;;;;;;6340144;22;20560;-90
2022/02/07 01:13:36;;;;;;;15.67;2.67;;;;;;;;;;6339165;22;20214;-90
2022/02/07 01:16:14;;;;;;;19.33;3.17;;;;;;;;;;6338677;22;20171;-89
2022/02/07 01:54:39;;;;;;;18.03;2.17;;;;;;;;;;6329829;22;20173;-90
2022/02/07 01:57:09;;;;;;;16.33;2.70;;;;;;;;;;6340450;22;20171;-90
2022/02/07 01:59:36;;;;;;;15.20;2.67;;;;;;;;;;6341042;22;20678;-90
2022/02/07 02:02:04;;;;;;;19.67;2.30;;;;;;;;;;6340721;22;20165;-89
2022/02/07 02:04:33;;;;;;;15.77;2.33;;;;;;;;;;6340996;22;20693;-90
2022/02/07 02:07:00;;;;;;;12.17;2.00;;;;;;;;;;6343356;22;20175;-90
2022/02/07 02:09:29;;;;;;;15.90;2.27;;;;;;;;;;6348559;22;20169;-90
2022/02/07 02:11:56;;;;;;;15.57;2.10;;;;;;;;;;6341231;22;20551;-90
2022/02/07 02:14:48;;;;;;;11.07;2.43;;;;;;;;;;6342024;22;20176;-90
2022/02/07 02:18:02;;;;;;;13.00;2.07;;;;;;;;;;6340870;22;20168;-90
2022/02/07 02:37:28;;;;;;;12.23;2.33;;;;;;;;;;6214489;23;20172;-89
2022/02/07 02:45:34;;;;;;;16.20;2.73;;;;;;;;;;6127237;23;20179;-89
2022/02/07 02:48:05;;;;;;;10.00;2.23;;;;;;;;;;6127703;23;20197;-90
2022/02/07 02:50:35;;;;;;;16.23;2.20;;;;;;;;;;6125913;23;20507;-90
2022/02/07 02:53:03;;;;;;;17.73;2.80;;;;;;;;;;6125273;23;20201;-90
2022/02/07 02:55:33;;;;;;;16.47;2.50;;;;;;;;;;6125587;23;20175;-90
2022/02/07 02:58:01;;;;;;;17.30;2.63;;;;;;;;;;6125425;23;20595;-90
2022/02/07 03:00:28;;;;;;;16.60;2.77;;;;;;;;;;6200061;23;20169;-89
2022/02/07 03:02:55;;;;;;;14.30;2.13;;;;;;;;;;6250870;23;20167;-89
2022/02/07 03:05:23;;;;;;;22.20;2.93;;;;;;;;;;6244395;23;20636;-90
2022/02/07 03:07:50;;;;;;;15.83;2.03;;;;;;;;;;6244633;23;20196;-89
2022/02/07 03:10:25;;;;;;;16.73;2.53;;;;;;;;;;6244543;23;20226;-90
2022/02/07 03:13:12;;;;;;;9.20;2.13;;;;;;;;;;6244279;23;20186;-89
2022/02/07 03:18:24;;;;;;;15.13;2.30;;;;;;;;;;6251687;22;20669;-90
2022/02/07 03:20:51;;;;;;;18.80;2.60;;;;;;;;;;6333796;22;20169;-89
2022/02/07 03:23:19;;;;;;;16.73;2.67;;;;;;;;;;6326985;22;20734;-89
2022/02/07 03:25:47;;;;;;;18.57;2.70;;;;;;;;;;6339530;22;20525;-90
2022/02/07 03:28:15;;;;;;;9.73;2.13;;;;;;;;;;6338826;22;20174;-90
2022/02/07 03:30:43;;;;;;;15.97;2.10;;;;;;;;;;6339065;22;20680;-90
2022/02/07 03:33:11;;;;;;;18.87;2.53;;;;;;;;;;6338455;22;20185;-90
2022/02/07 03:35:38;;;;;;;14.63;2.87;;;;;;;;;;6338885;22;20484;-89
2022/02/07 03:38:07;;;;;;;17.53;2.43;;;;;;;;;;6338923;22;20162;-90
2022/02/07 03:40:34;;;;;;;14.53;2.23;;;;;;;;;;6339359;22;20229;-89
2022/02/07 03:43:01;;;;;;;16.27;2.67;;;;;;;;;;6339241;22;20203;-89
2022/02/07 03:45:30;;;;;;;13.07;2.30;;;;;;;;;;6339546;22;20222;-89
2022/02/07 03:47:58;;;;;;;18.10;2.53;;;;;;;;;;6340976;22;20199;-89
2022/02/07 03:50:25;;;;;;;18.20;2.63;;;;;;;;;;6345600;22;20611;-89
2022/02/07 03:52:52;;;;;;;16.93;2.77;;;;;;;;;;6339060;22;20716;-89
2022/02/07 03:55:20;;;;;;;15.27;2.63;;;;;;;;;;6339576;22;20169;-89
2022/02/07 03:57:47;;;;;;;13.23;2.13;;;;;;;;;;6339880;22;20169;-89
2022/02/07 04:00:16;;;;;;;13.47;2.10;;;;;;;;;;6338723;22;20172;-89
2022/02/07 04:02:49;;;;;;;14.93;2.70;;;;;;;;;;6338357;22;20165;-89
2022/02/07 04:08:02;;;;;;;14.97;2.63;;;;;;;;;;6338858;22;20171;-90
2022/02/07 04:10:36;;;;;;;13.00;2.37;;;;;;;;;;6338178;22;20172;-89
2022/02/07 04:13:05;;;;;;;17.03;2.27;;;;;;;;;;6338720;22;20507;-89
2022/02/07 04:15:32;;;;;;;22.30;3.13;;;;;;;;;;6338339;22;20203;-90
2022/02/07 04:18:05;;;;;;;16.60;3.03;;;;;;;;;;6338824;22;20238;-90
2022/02/07 04:20:32;;;;;;;13.20;2.50;;;;;;;;;;6339109;22;20177;-90
2022/02/07 04:22:59;;;;;;;12.57;2.37;;;;;;;;;;6346592;22;20197;-90
2022/02/07 04:25:27;;;;;;;10.67;2.53;;;;;;;;;;6342475;22;20165;-90
2022/02/07 04:27:54;;;;;;;12.17;2.13;;;;;;;;;;6339030;22;20633;-89
2022/02/07 04:30:21;;;;;;;12.03;2.77;;;;;;;;;;6339064;22;20603;-89
2022/02/07 04:32:49;;;;;;;20.00;3.10;;;;;;;;;;6339061;22;20185;-90
2022/02/07 04:35:17;;;;;;;12.93;2.47;;;;;;;;;;6338290;22;20222;-89
2022/02/07 04:37:45;;;;;;;15.17;3.20;;;;;;;;;;6338432;22;20222;-90
2022/02/07 04:40:12;;;;;;;16.73;3.33;;;;;;;;;;6338512;22;20169;-90
2022/02/07 04:42:40;;;;;;;18.57;3.17;;;;;;;;;;6338328;22;20249;-89
2022/02/07 04:45:24;;;;;;;13.17;2.93;;;;;;;;;;6338438;22;20506;-89
2022/02/07 04:48:13;;;;;;;21.77;3.33;;;;;;;;;;6338196;22;20169;-89
2022/02/07 04:50:50;;;;;;;19.47;3.80;;;;;;;;;;6337969;22;20243;-89
2022/02/07 04:53:25;;;;;;;16.80;3.47;;;;;;;;;;6338720;22;20197;-89
2022/02/07 04:56:14;;;;;;;19.17;2.47;;;;;;;;;;6341709;22;20218;-90
2022/02/07 04:58:54;;;;;;;20.57;2.77;;;;;;;;;;6345171;22;20561;-89
2022/02/07 05:01:31;;;;;;;13.37;2.50;;;;;;;;;;6338442;22;20168;-89
2022/02/07 05:04:04;;;;;;;13.67;3.03;;;;;;;;;;6338756;22;20165;-89
2022/02/07 05:15:01;;;;;;;14.83;3.17;;;;;;;;;;6214384;23;20175;-89
2022/02/07 05:17:31;;;;;;;17.93;2.73;;;;;;;;;;6214902;23;20179;-89
2022/02/07 05:19:58;;;;;;;18.93;2.77;;;;;;;;;;6213500;23;20622;-89
2022/02/07 05:26:03;;;;;;;14.13;2.57;;;;;;;;;;6196600;23;20186;-89
2022/02/07 05:31:38;;;;;;;13.90;2.60;;;;;;;;;;6219887;23;20182;-89
2022/02/07 05:34:06;;;;;;;15.60;2.63;;;;;;;;;;6215160;23;20199;-90
2022/02/07 05:37:00;;;;;;;;;;;;;;;;;;;;;
2022/02/07 05:39:33;;;;;;;16.07;2.93;;;;;;;;;;6213944;23;20164;-90
2022/02/07 05:42:04;;;;;;;14.63;2.10;;;;;;;;;;6212348;23;20525;-90
2022/02/07 05:44:34;;;;;;;15.20;2.40;;;;;;;;;;6338743;22;20173;-90
2022/02/07 05:47:01;;;;;;;14.77;3.23;;;;;;;;;;6338553;22;20244;-90
2022/02/07 05:49:28;;;;;;;12.40;3.17;;;;;;;;;;6338406;22;20169;-90
2022/02/07 05:51:56;;;;;;;18.40;3.87;;;;;;;;;;6338308;22;20177;-90
2022/02/07 05:54:23;;;;;;;15.07;4.17;;;;;;;;;;6338307;22;20196;-90
2022/02/07 05:56:50;;;;;;;18.13;4.30;;;;;;;;;;6337901;22;20615;-90
2022/02/07 05:59:17;;;;;;;14.90;3.63;;;;;;;;;;6338452;22;20270;-89
2022/02/07 06:01:46;;;;;;;12.27;2.80;;;;;;;;;;6337447;22;20245;-89
2022/02/07 06:04:13;;;;;;;15.53;2.97;;;;;;;;;;6338889;22;20168;-90
2022/02/07 06:06:41;;;;;;;15.03;3.43;;;;;;;;;;6341689;22;20172;-89
2022/02/07 06:09:08;;;;;;;14.30;5.10;;;;;;;;;;6338423;22;20226;-90
2022/02/07 06:11:36;;;;;;;159.00;80.47;;;;;;;;;;6339314;22;20225;-89
2022/02/07 06:14:03;;;;;;;103.13;51.00;;;;;;;;;;6339599;22;20241;-88
2022/02/07 06:16:32;;;;;;;101.77;48.83;;;;;;;;;;6339816;22;20229;-89
2022/02/07 06:19:01;;;;;;;80.20;44.57;;;;;;;;;;6340497;22;20165;-89
2022/02/07 06:21:32;;;;;;;53.47;30.10;;;;;;;;;;6340562;22;20171;-89
2022/02/07 06:24:01;;;;;;;44.30;22.23;;;;;;;;;;6339796;22;20229;-89
2022/02/07 06:26:29;;;;;;;28.67;10.40;;;;;;;;;;6339918;22;20172;-89
2022/02/07 06:28:56;;;;;;;21.00;7.70;;;;;;;;;;6340493;22;20224;-89
2022/02/07 06:31:24;;;;;;;16.07;5.87;;;;;;;;;;6339885;22;20227;-89
2022/02/07 06:33:51;;;;;;;18.43;5.10;;;;;;;;;;6339113;22;20646;-89
2022/02/07 06:36:20;;;;;;;18.13;4.90;;;;;;;;;;6340190;22;20226;-89
2022/02/07 06:38:48;;;;;;;20.33;4.87;;;;;;;;;;6344912;22;20202;-89
2022/02/07 06:41:15;;;;;;;21.27;5.13;;;;;;;;;;6343376;22;20252;-89
2022/02/07 06:43:42;;;;;;;41.87;17.47;;;;;;;;;;6339749;22;20243;-89
2022/02/07 06:46:10;;;;;;;28.53;14.17;;;;;;;;;;6339459;22;20169;-89
2022/02/07 06:48:37;;;;;;;25.43;11.87;;;;;;;;;;6339982;22;20169;-89
2022/02/07 06:51:04;;;;;;;23.30;9.67;;;;;;;;;;6339924;22;20172;-89
2022/02/07 06:53:33;;;;;;;23.30;9.83;;;;;;;;;;6339675;22;20204;-89
2022/02/07 06:56:00;;;;;;;23.10;9.00;;;;;;;;;;6339984;22;20167;-89
2022/02/07 06:58:28;;;;;;;24.43;7.77;;;;;;;;;;6339919;22;20543;-88
2022/02/07 07:00:55;;;;;;;20.40;7.80;;;;;;;;;;6341411;22;20171;-89
2022/02/07 07:03:24;;;;;;;19.93;7.13;;;;;;;;;;6340046;22;20172;-89
2022/02/07 07:05:53;;;;;;;22.37;10.70;;;;;;;;;;6340214;22;20539;-89
2022/02/07 07:08:21;;;;;;;22.47;11.80;;;;;;;;;;6339595;22;20186;-89
2022/02/07 07:10:50;;;;;;;17.30;9.90;;;;;;;;;;6340157;22;20246;-89
2022/02/07 07:13:23;;;;;;;23.53;9.47;;;;;;;;;;6343839;22;20170;-89
2022/02/07 07:15:54;;;;;;;18.87;10.07;;;;;;;;;;6341014;22;20198;-89
2022/02/07 07:18:22;;;;;;;21.90;11.10;;;;;;;;;;6340576;22;20172;-89
2022/02/07 07:20:49;;;;;;;18.67;9.40;;;;;;;;;;6340036;22;20170;-89
2022/02/07 07:23:17;;;;;;;19.13;8.70;;;;;;;;;;6339321;22;20202;-89
2022/02/07 07:25:46;;;;;;;17.57;6.10;;;;;;;;;;6341695;22;20497;-88
2022/02/07 07:28:17;;;;;;;11.40;4.07;;;;;;;;;;6359528;22;20178;-89
2022/02/07 07:30:48;;;;;;;10.53;2.93;;;;;;;;;;6355207;22;20630;-89
2022/02/07 07:33:19;;;;;;;11.35;3.30;;;;;;;;;;6346443;22;20198;-89
2022/02/07 07:38:34;;;;;;;11.03;2.87;;;;;;;;;;6333973;22;20627;-89
2022/02/07 07:44:36;;;;;;;12.27;3.83;;;;;;;;;;6252635;23;20197;-89
2022/02/07 07:50:16;;;;;;;17.47;5.30;;;;;;;;;;6224789;23;20184;-89
2022/02/07 07:53:01;;;;;;;19.93;4.90;;;;;;;;;;6256182;22;20170;-88
2022/02/07 08:01:23;;;;;;;13.90;4.10;;;;;;;;;;6244540;23;20763;-88
2022/02/07 08:03:53;;;;;;;12.40;3.93;;;;;;;;;;6244378;23;20190;-89
2022/02/07 08:06:24;;;;;;;9.83;4.20;;;;;;;;;;6244295;22;20178;-88
2022/02/07 08:09:15;;;;;;;11.93;4.70;;;;;;;;;;6297933;22;20222;-88
2022/02/07 08:11:42;;;;;;;13.07;5.07;;;;;;;;;;6338388;22;20172;-89
2022/02/07 08:14:22;;;;;;;17.37;5.40;;;;;;;;;;6339580;22;20562;-88
2022/02/07 08:16:52;;;;;;;13.10;7.60;;;;;;;;;;6346354;22;20256;-88
2022/02/07 08:19:22;;;;;;;14.77;7.00;;;;;;;;;;6339600;22;20512;-89
2022/02/07 08:21:49;;;;;;;9.70;5.43;;;;;;;;;;6338319;22;20543;-89
2022/02/07 08:24:16;;;;;;;9.90;5.67;;;;;;;;;;6338816;22;20167;-91
2022/02/07 08:26:44;;;;;;;12.17;4.80;;;;;;;;;;6338203;22;20278;-89
2022/02/07 08:29:13;;;;;;;10.70;5.23;;;;;;;;;;6338484;22;20625;-89
2022/02/07 08:31:40;;;;;;;10.03;6.33;;;;;;;;;;6338952;22;20234;-88
2022/02/07 08:34:07;;;;;;;12.03;3.33;;;;;;;;;;6338320;22;20262;-89
2022/02/07 08:36:37;;;;;;;4.60;2.30;;;;;;;;;;6338623;22;20169;-88
2022/02/07 08:39:05;;;;;;;8.73;4.10;;;;;;;;;;6338742;22;20169;-90
2022/02/07 08:41:32;;;;;;;11.37;5.00;;;;;;;;;;6338722;22;20611;-89
2022/02/07 08:43:59;;;;;;;10.37;5.63;;;;;;;;;;6338828;22;20192;-89
2022/02/07 08:46:27;;;;;;;13.87;8.23;;;;;;;;;;6340225;22;20195;-89
2022/02/07 08:48:54;;;;;;;12.73;8.07;;;;;;;;;;6342287;22;20222;-89
2022/02/07 08:51:22;;;;;;;13.60;6.83;;;;;;;;;;6338911;22;20192;-89
2022/02/07 08:53:51;;;;;;;11.18;4.88;;;;;;;;;;6338624;22;20215;-89
2022/02/07 08:56:27;;;;;;;8.90;3.55;;;;;;;;;;6338775;22;20510;-89
2022/02/07 08:58:55;;;;;;;9.73;6.07;;;;;;;;;;6338512;22;20618;-89
2022/02/07 09:01:27;;;;;;;11.35;5.30;;;;;;;;;;6338622;22;20165;-89
2022/02/07 09:06:52;;;;;;;10.43;5.70;;;;;;;;;;6212508;23;20610;-89
2022/02/07 09:09:21;;;;;;;10.13;5.50;;;;;;;;;;6212581;23;20167;-89
2022/02/07 09:11:49;;;;;;;9.18;5.85;;;;;;;;;;6212064;23;20168;-89
2022/02/07 09:14:21;;;;;;;10.75;5.78;;;;;;;;;;6212485;23;20630;-89
2022/02/07 09:16:49;;;;;;;12.27;5.00;;;;;;;;;;6212946;23;20331;-87
2022/02/07 09:19:19;;;;;;;12.65;4.35;;;;;;;;;;6216809;23;20167;-88
2022/02/07 09:21:47;;;;;;;11.43;4.30;;;;;;;;;;6211128;23;20287;-89
2022/02/07 09:24:14;;;;;;;10.35;3.63;;;;;;;;;;6212032;23;20251;-88
2022/02/07 09:26:43;;;;;;;9.70;3.53;;;;;;;;;;6211791;23;20182;-89
2022/02/07 09:29:11;;;;;;;9.88;2.95;;;;;;;;;;6211656;23;20171;-89
2022/02/07 09:31:38;;;;;;;11.75;2.95;;;;;;;;;;6212349;23;20171;-88
2022/02/07 09:34:06;;;;;;;14.10;3.55;;;;;;;;;;6211425;23;20175;-88
2022/02/07 09:36:33;;;;;;;9.95;3.00;;;;;;;;;;6211888;23;20171;-89
2022/02/07 09:39:00;;;;;;;8.93;2.92;;;;;;;;;;6211678;23;20547;-88
2022/02/07 09:41:31;;;;;;;10.82;2.85;;;;;;;;;;6211522;23;20195;-87
2022/02/07 09:44:02;;;;;;;10.35;3.00;;;;;;;;;;6281275;22;20188;-89
2022/02/07 09:46:43;;;;;;;11.25;3.08;;;;;;;;;;6340313;22;20172;-88
2022/02/07 09:49:11;;;;;;;13.63;2.80;;;;;;;;;;6342443;22;20172;-89
2022/02/07 09:51:38;;;;;;;12.10;2.90;;;;;;;;;;6340050;22;20222;-88
2022/02/07 09:54:05;;;;;;;14.13;2.90;;;;;;;;;;6339894;22;20169;-88
2022/02/07 09:56:33;;;;;;;11.38;3.08;;;;;;;;;;6340380;22;20161;-88
2022/02/07 09:59:01;;;;;;;12.10;2.85;;;;;;;;;;6339291;22;20222;-88
2022/02/07 10:01:32;;;;;;;9.48;2.63;;;;;;;;;;6339367;22;20218;-88
2022/02/07 10:04:03;;;;;;;12.57;3.00;;;;;;;;;;6339043;22;20165;-88
2022/02/07 10:09:45;;;;;;;12.73;2.92;;;;;;;;;;6333790;22;20176;-88
2022/02/07 10:12:29;;;;;;;9.80;2.90;;;;;;;;;;6339373;22;20503;-88
2022/02/07 10:18:00;;;;;;;13.57;3.17;;;;;;;;;;6307692;22;20208;-88
2022/02/07 10:34:50;;;;;;;11.63;2.88;;;;;;;;;;6008725;23;20265;-87
2022/02/07 10:40:19;;;;;;;13.40;2.97;;;;;;;;;;6009052;23;20621;-87
2022/02/07 10:43:08;;;;;;;11.75;2.65;;;;;;;;;;6008914;23;20752;-87
2022/02/07 10:45:35;;;;;;;10.35;2.45;;;;;;;;;;6008807;23;20172;-88
2022/02/07 10:48:07;;;;;;;8.85;2.25;;;;;;;;;;6008909;23;20173;-87
2022/02/07 10:50:35;;;;;;;10.88;2.60;;;;;;;;;;6008665;23;20636;-87
2022/02/07 10:53:02;;;;;;;9.20;2.38;;;;;;;;;;6009105;23;20582;-88
2022/02/07 10:55:31;;;;;;;13.32;2.92;;;;;;;;;;6008934;23;20231;-88
2022/02/07 10:58:00;;;;;;;11.85;2.70;;;;;;;;;;6008840;23;20176;-87
2022/02/07 11:00:32;;;;;;;10.57;2.65;;;;;;;;;;6161910;23;20164;-88
2022/02/07 11:03:06;;;;;;;12.60;3.20;;;;;;;;;;6272802;22;20500;-88
2022/02/07 11:05:40;;;;;;;9.77;2.70;;;;;;;;;;6339084;22;20165;-88
2022/02/07 11:08:22;;;;;;;11.52;2.85;;;;;;;;;;6339179;22;20614;-88
2022/02/07 11:11:14;;;;;;;9.20;2.58;;;;;;;;;;6339136;22;20476;-88
2022/02/07 11:14:00;;;;;;;7.70;2.78;;;;;;;;;;6338874;22;20166;-88
2022/02/07 11:16:37;;;;;;;10.68;2.50;;;;;;;;;;6334653;22;20307;-88
2022/02/07 11:19:13;;;;;;;10.80;2.80;;;;;;;;;;6338647;22;20239;-88
2022/02/07 11:22:09;;;;;;;10.38;2.60;;;;;;;;;;6340805;22;20491;-88
2022/02/07 11:24:57;;;;;;;8.48;2.70;;;;;;;;;;6340066;22;20176;-89
2022/02/07 11:27:36;;;;;;;11.45;2.42;;;;;;;;;;6339657;22;20165;-88
2022/02/07 11:30:07;;;;;;;9.13;2.58;;;;;;;;;;6339388;22;20165;-88
2022/02/07 11:32:54;;;;;;;9.57;2.50;;;;;;;;;;6339083;22;20508;-88
2022/02/07 11:35:22;;;;;;;7.43;2.33;;;;;;;;;;6341996;22;20199;-88
2022/02/07 11:38:11;;;;;;;12.25;2.42;;;;;;;;;;6356899;22;20169;-88
2022/02/07 11:40:39;;;;;;;11.55;2.50;;;;;;;;;;6352964;22;20176;-88
2022/02/07 11:43:07;;;;;;;9.57;2.53;;;;;;;;;;6345247;22;20185;-88
2022/02/07 11:45:49;;;;;;;8.73;2.28;;;;;;;;;;6343292;22;20169;-88
2022/02/07 11:50:59;;;;;;;7.40;2.08;;;;;;;;;;6344083;22;20173;-88
2022/02/07 11:53:44;;;;;;;11.70;2.53;;;;;;;;;;6339667;22;20230;-88
2022/02/07 11:56:16;;;;;;;9.55;2.22;;;;;;;;;;6338817;22;20189;-88
2022/02/07 11:58:48;;;;;;;9.70;2.55;;;;;;;;;;6338740;22;20265;-89
2022/02/07 12:01:17;;;;;;;9.38;2.38;;;;;;;;;;6337712;22;20172;-89
2022/02/07 12:03:52;;;;;;;7.43;1.83;;;;;;;;;;6338895;22;20199;-89
2022/02/07 12:06:23;;;;;;;9.50;2.25;;;;;;;;;;6337979;22;20173;-88
2022/02/07 12:08:54;;;;;;;10.00;2.33;;;;;;;;;;6338357;22;20212;-89
2022/02/07 12:11:21;;;;;;;7.47;2.10;;;;;;;;;;6338396;22;20500;-89
2022/02/07 12:13:49;;;;;;;8.48;2.10;;;;;;;;;;6338020;22;20188;-89
2022/02/07 12:16:19;;;;;;;13.40;2.33;;;;;;;;;;6338127;22;20189;-88
2022/02/07 12:19:10;;;;;;;8.90;2.55;;;;;;;;;;6338057;22;20169;-89
2022/02/07 12:21:37;;;;;;;8.73;2.30;;;;;;;;;;6337593;22;20194;-89
2022/02/07 12:24:07;;;;;;;8.13;2.00;;;;;;;;;;6345431;22;20218;-89
2022/02/07 12:26:37;;;;;;;8.45;1.92;;;;;;;;;;6340512;22;20171;-89
2022/02/07 12:29:13;;;;;;;7.00;1.80;;;;;;;;;;6338238;22;20164;-90
2022/02/07 12:31:41;;;;;;;7.18;1.75;;;;;;;;;;6338044;22;20195;-89
2022/02/07 12:34:12;;;;;;;7.97;1.70;;;;;;;;;;6338154;22;20227;-89
2022/02/07 12:36:40;;;;;;;8.02;1.90;;;;;;;;;;6338070;22;20722;-89
2022/02/07 12:39:10;;;;;;;6.45;2.17;;;;;;;;;;6338413;22;20165;-89
2022/02/07 12:41:38;;;;;;;9.30;2.58;;;;;;;;;;6338706;22;20545;-89
2022/02/07 12:44:07;;;;;;;9.30;2.30;;;;;;;;;;6338168;22;20193;-89
2022/02/07 12:46:35;;;;;;;8.25;1.92;;;;;;;;;;6337723;22;20171;-88
2022/02/07 12:49:09;;;;;;;8.87;1.63;;;;;;;;;;6338434;22;20168;-89
2022/02/07 12:51:42;;;;;;;6.90;2.00;;;;;;;;;;6339391;22;20282;-89
2022/02/07 12:54:11;;;;;;;6.23;1.60;;;;;;;;;;6338377;22;20193;-89
2022/02/07 12:56:41;;;;;;;7.60;1.52;;;;;;;;;;6341625;22;20189;-89
2022/02/07 12:59:09;;;;;;;7.43;1.60;;;;;;;;;;6337478;22;20169;-89
2022/02/07 13:01:39;;;;;;;6.50;1.53;;;;;;;;;;6338396;22;20218;-89
2022/02/07 13:04:07;;;;;;;8.77;1.73;;;;;;;;;;6337707;22;20615;-89
2022/02/07 13:06:35;;;;;;;6.97;1.20;;;;;;;;;;6337874;22;20171;-89
2022/02/07 13:09:04;;;;;;;8.47;1.67;;;;;;;;;;6337635;22;20218;-89
2022/02/07 13:11:34;;;;;;;7.97;1.67;;;;;;;;;;6337978;22;20622;-89
2022/02/07 13:14:03;;;;;;;7.77;1.70;;;;;;;;;;6337739;22;20172;-88
2022/02/07 13:16:34;;;;;;;6.73;1.30;;;;;;;;;;6338213;22;20250;-89
2022/02/07 13:19:12;;;;;;;7.30;1.40;;;;;;;;;;6337774;22;20211;-89
2022/02/07 13:21:42;;;;;;;7.73;1.47;;;;;;;;;;6337955;22;20197;-89
2022/02/07 13:24:14;;;;;;;6.77;1.30;;;;;;;;;;6337898;22;20175;-88
2022/02/07 13:26:46;;;;;;;6.40;1.50;;;;;;;;;;6336829;22;20165;-89
2022/02/07 13:29:16;;;;;;;9.53;2.57;;;;;;;;;;6338111;22;20169;-88
2022/02/07 13:31:44;;;;;;;7.27;1.43;;;;;;;;;;6337914;22;20173;-88
2022/02/07 13:34:21;;;;;;;4.73;1.47;;;;;;;;;;6337553;22;20672;-89
2022/02/07 13:36:51;;;;;;;6.93;1.30;;;;;;;;;;6337198;22;20242;-89
2022/02/07 13:39:19;;;;;;;6.07;1.35;;;;;;;;;;6337488;22;20214;-89
2022/02/07 13:42:01;;;;;;;5.95;1.58;;;;;;;;;;6337374;22;20248;-89
2022/02/07 13:44:30;;;;;;;4.63;1.30;;;;;;;;;;6337658;22;20188;-89
2022/02/07 13:47:02;;;;;;;5.97;1.58;;;;;;;;;;6338076;22;20556;-89
2022/02/07 13:49:29;;;;;;;10.32;1.65;;;;;;;;;;6337825;22;20215;-89
2022/02/07 13:51:56;;;;;;;8.63;1.70;;;;;;;;;;6337942;22;20214;-89
2022/02/07 13:54:31;;;;;;;6.55;1.50;;;;;;;;;;6337767;22;20165;-89
2022/02/07 13:56:59;;;;;;;8.13;1.85;;;;;;;;;;6337413;22;20196;-90
2022/02/07 13:59:27;;;;;;;6.88;1.40;;;;;;;;;;6338017;22;20502;-89
2022/02/07 14:01:56;;;;;;;7.47;1.98;;;;;;;;;;6337322;22;20169;-89
2022/02/07 14:04:25;;;;;;;8.95;2.30;;;;;;;;;;6337462;22;20188;-90
2022/02/07 14:07:05;;;;;;;7.40;2.65;;;;;;;;;;6337155;22;20691;-89
2022/02/07 14:09:33;;;;;;;7.00;1.73;;;;;;;;;;6337301;22;20219;-89
2022/02/07 14:12:02;;;;;;;6.75;1.67;;;;;;;;;;6337636;22;20222;-89
2022/02/07 14:14:29;;;;;;;8.18;2.13;;;;;;;;;;6338401;22;20169;-89
2022/02/07 14:16:58;;;;;;;8.45;1.70;;;;;;;;;;6338420;22;20193;-89
2022/02/07 14:19:38;;;;;;;6.47;2.23;;;;;;;;;;6338317;22;20169;-89
2022/02/07 14:22:06;;;;;;;9.43;2.20;;;;;;;;;;6310668;22;20203;-89
2022/02/07 14:24:33;;;;;;;7.97;2.23;;;;;;;;;;6337621;22;20173;-90
2022/02/07 14:27:01;;;;;;;10.97;2.13;;;;;;;;;;6337500;22;20491;-89
2022/02/07 14:29:28;;;;;;;6.70;2.23;;;;;;;;;;6338096;22;20257;-89
2022/02/07 14:31:55;;;;;;;9.70;1.87;;;;;;;;;;6338070;22;20226;-89
2022/02/07 14:34:24;;;;;;;9.17;1.70;;;;;;;;;;6339422;22;20189;-89
2022/02/07 14:36:51;;;;;;;6.30;1.50;;;;;;;;;;6339345;22;20739;-90
2022/02/07 14:39:18;;;;;;;8.77;1.57;;;;;;;;;;6339040;22;20169;-90
2022/02/07 14:41:51;;;;;;;4.50;1.30;;;;;;;;;;6339599;22;20692;-90
2022/02/07 14:44:26;;;;;;;6.30;1.40;;;;;;;;;;6339656;22;20173;-90
2022/02/07 14:47:05;;;;;;;8.80;1.60;;;;;;;;;;6339764;22;20244;-89
2022/02/07 14:49:33;;;;;;;6.10;1.30;;;;;;;;;;6340148;22;20165;-89
2022/02/07 14:52:03;;;;;;;7.07;1.40;;;;;;;;;;6338257;22;20177;-89
2022/02/07 14:54:32;;;;;;;6.37;1.33;;;;;;;;;;6339587;22;20169;-89
2022/02/07 14:56:59;;;;;;;8.20;1.60;;;;;;;;;;6340119;22;20185;-89
2022/02/07 14:59:27;;;;;;;7.33;1.40;;;;;;;;;;6339182;22;20646;-89
2022/02/07 15:01:55;;;;;;;6.60;1.77;;;;;;;;;;6339731;22;20168;-89
2022/02/07 15:04:22;;;;;;;9.60;1.60;;;;;;;;;;6339109;22;20177;-89
2022/02/07 15:06:51;;;;;;;7.53;1.30;;;;;;;;;;6338727;22;20195;-89
2022/02/07 15:09:18;;;;;;;7.80;1.67;;;;;;;;;;6338995;22;20238;-89
2022/02/07 15:11:49;;;;;;;6.63;1.60;;;;;;;;;;6338116;22;20645;-89
2022/02/07 15:14:17;;;;;;;5.27;1.40;;;;;;;;;;6341763;22;20204;-89
2022/02/07 15:16:44;;;;;;;5.37;1.20;;;;;;;;;;6342880;22;20193;-89
2022/02/07 15:19:11;;;;;;;7.50;1.40;;;;;;;;;;6338994;22;20222;-88
2022/02/07 15:21:39;;;;;;;6.67;1.70;;;;;;;;;;6338726;22;20670;-88
2022/02/07 15:24:08;;;;;;;5.90;1.47;;;;;;;;;;6338935;22;20191;-89
2022/02/07 15:26:37;;;;;;;7.53;1.70;;;;;;;;;;6339582;22;20550;-89
2022/02/07 15:29:05;;;;;;;8.00;1.57;;;;;;;;;;6340136;22;20169;-89
2022/02/07 15:31:32;;;;;;;5.90;1.73;;;;;;;;;;6339569;22;20177;-89
2022/02/07 15:34:00;;;;;;;6.83;1.70;;;;;;;;;;6338048;22;20165;-89
2022/02/07 15:36:27;;;;;;;6.13;1.63;;;;;;;;;;6338861;22;20185;-89
2022/02/07 15:39:08;;;;;;;7.67;1.80;;;;;;;;;;6339618;22;20169;-90
2022/02/07 15:41:39;;;;;;;7.63;1.90;;;;;;;;;;6339013;22;20196;-90
2022/02/07 15:44:07;;;;;;;6.97;1.87;;;;;;;;;;6339195;22;20263;-90
2022/02/07 15:46:34;;;;;;;11.00;2.10;;;;;;;;;;6339155;22;20161;-89
2022/02/07 15:49:01;;;;;;;7.30;1.97;;;;;;;;;;6339411;22;20246;-90
2022/02/07 15:51:29;;;;;;;5.70;1.77;;;;;;;;;;6339191;22;20173;-90
2022/02/07 15:53:56;;;;;;;8.93;1.80;;;;;;;;;;6339238;22;20564;-90
2022/02/07 15:56:23;;;;;;;7.37;1.93;;;;;;;;;;6338768;22;20185;-90
2022/02/07 15:58:52;;;;;;;8.73;2.20;;;;;;;;;;6337422;22;20165;-90
2022/02/07 16:01:20;;;;;;;8.53;2.87;;;;;;;;;;6337718;22;20169;-89
2022/02/07 16:03:47;;;;;;;6.50;2.07;;;;;;;;;;6338375;22;20242;-90
2022/02/07 16:06:16;;;;;;;8.70;2.27;;;;;;;;;;6338782;22;20221;-90
2022/02/07 16:08:44;;;;;;;8.60;2.43;;;;;;;;;;6338765;22;20187;-91
2022/02/07 16:11:12;;;;;;;9.87;2.00;;;;;;;;;;6340295;22;20223;-90
2022/02/07 16:13:45;;;;;;;8.93;2.00;;;;;;;;;;6339997;22;20240;-91
2022/02/07 16:16:13;;;;;;;7.43;2.07;;;;;;;;;;6338691;22;20214;-90
2022/02/07 16:18:41;;;;;;;10.83;2.30;;;;;;;;;;6339255;22;20169;-90
2022/02/07 16:21:08;;;;;;;10.97;2.20;;;;;;;;;;6338455;22;20691;-89
2022/02/07 16:23:35;;;;;;;11.03;3.80;;;;;;;;;;6339169;22;20201;-89
2022/02/07 16:26:04;;;;;;;10.80;4.90;;;;;;;;;;6338892;22;20169;-91
2022/02/07 16:28:31;;;;;;;14.30;5.93;;;;;;;;;;6338723;22;20562;-90
2022/02/07 16:30:59;;;;;;;15.47;5.67;;;;;;;;;;6338162;22;20165;-90
2022/02/07 16:33:27;;;;;;;12.80;5.97;;;;;;;;;;6338466;22;20169;-89
2022/02/07 16:35:55;;;;;;;12.70;6.00;;;;;;;;;;6338226;22;20173;-90
2022/02/07 16:38:22;;;;;;;17.00;7.30;;;;;;;;;;6338195;22;20753;-90
2022/02/07 16:40:50;;;;;;;13.93;5.87;;;;;;;;;;6338908;22;20169;-90
2022/02/07 16:43:18;;;;;;;10.87;4.87;;;;;;;;;;6339071;22;20654;-91
2022/02/07 16:46:13;;;;;;;12.57;5.30;;;;;;;;;;6339926;22;20507;-90
2022/02/07 16:48:47;;;;;;;19.50;6.87;;;;;;;;;;6339258;22;20253;-90
2022/02/07 16:51:15;;;;;;;19.17;9.43;;;;;;;;;;6337956;22;20176;-90
2022/02/07 16:53:43;;;;;;;21.30;10.07;;;;;;;;;;6338914;22;20561;-89
2022/02/07 16:56:10;;;;;;;20.77;10.17;;;;;;;;;;6338569;22;20169;-90
2022/02/07 16:58:37;;;;;;;18.30;8.77;;;;;;;;;;6338382;22;20568;-90